createdAt,value
2022-10-11T03:00:57.645Z,7.55
2022-10-11T03:06:00.950Z,6.85
2022-10-11T03:11:02.878Z,7.72
2022-10-11T03:16:06.079Z,7.22
2022-10-11T03:21:07.781Z,7.25
2022-10-11T03:26:09.719Z,7.47
2022-10-11T03:31:12.932Z,8.35
2022-10-11T03:36:14.885Z,7.70
2022-10-11T03:41:16.622Z,7.03
2022-10-11T03:46:19.812Z,6.65
2022-10-11T03:51:21.508Z,8.50
2022-10-11T03:56:23.288Z,7.82
2022-10-11T04:18:12.625Z,8.32
2022-10-11T04:23:14.528Z,7.78
2022-10-11T04:28:16.386Z,7.30
2022-10-11T04:33:19.644Z,7.25
2022-10-11T04:38:21.391Z,8.00
2022-10-11T04:43:23.076Z,6.57
2022-10-11T04:48:26.225Z,7.28
2022-10-11T04:53:28.052Z,7.75
2022-10-11T04:58:30.780Z,7.47
2022-10-11T05:03:34.054Z,7.47
2022-10-11T05:08:35.993Z,7.05
2022-10-11T05:13:38.426Z,6.62
2022-10-11T05:18:41.588Z,7.20
2022-10-11T05:23:44.069Z,7.60
2022-10-11T05:28:46.052Z,7.90
2022-10-11T05:33:49.328Z,6.65
2022-10-11T05:38:55.942Z,7.00
2022-10-11T05:43:57.736Z,7.22
2022-10-11T05:49:06.068Z,7.30
2022-10-11T05:54:07.945Z,7.50
2022-10-11T05:59:17.006Z,6.78
2022-10-11T06:04:20.205Z,7.15
2022-10-11T06:09:21.982Z,6.72
2022-10-11T06:14:31.719Z,7.90
2022-10-11T06:19:35.040Z,8.27
2022-10-11T06:24:39.156Z,7.45
2022-10-11T06:29:40.956Z,8.02
2022-10-11T06:34:51.831Z,7.62
2022-10-11T06:39:53.654Z,6.80
2022-10-11T06:45:03.019Z,7.25
2022-10-11T06:50:06.965Z,7.35
2022-10-11T06:55:09.063Z,7.12
2022-10-11T07:00:12.896Z,8.00
2022-10-11T07:05:16.478Z,8.13
2022-10-11T07:10:18.379Z,7.32
2022-10-11T07:15:20.129Z,7.85
2022-10-11T07:20:23.360Z,8.02
2022-10-11T07:25:25.106Z,7.12
2022-10-11T07:30:26.826Z,7.85
2022-10-11T07:35:29.957Z,7.43
2022-10-11T07:40:32.046Z,7.68
2022-10-11T07:45:33.768Z,7.60
2022-10-11T07:50:37.204Z,7.53
2022-10-11T07:55:39.192Z,7.80
2022-10-11T08:00:40.948Z,7.22
2022-10-11T08:05:44.048Z,7.80
2022-10-11T08:10:45.791Z,7.10
2022-10-11T08:15:47.572Z,6.70
2022-10-11T08:20:50.697Z,6.93
2022-10-11T08:25:56.970Z,6.90
2022-10-11T08:30:59.222Z,6.75
2022-10-11T08:36:05.283Z,6.65
2022-10-11T08:41:37.402Z,6.60
2022-10-11T08:46:42.816Z,6.65
2022-10-11T08:51:47.995Z,7.07
2022-10-11T09:02:02.742Z,7.15
2022-10-11T09:07:17.109Z,7.10
2022-10-11T09:12:32.803Z,6.97
2022-10-11T09:17:50.446Z,7.35
2022-10-11T09:23:00.357Z,6.82
2022-10-11T09:28:17.572Z,6.57
2022-10-11T09:33:23.872Z,7.40
2022-10-11T09:38:37.270Z,6.93
2022-10-11T09:43:39.440Z,6.50
2022-10-11T09:48:41.819Z,7.12
2022-10-11T09:53:52.885Z,7.15
2022-10-11T09:59:26.433Z,7.12
2022-10-11T10:04:28.311Z,7.15
2022-10-11T10:09:40.040Z,7.32
2022-10-11T10:21:15.016Z,7.20
2022-10-11T10:32:09.115Z,6.30
2022-10-11T10:37:11.560Z,6.90
2022-10-11T10:42:20.450Z,7.28
2022-10-11T11:05:45.624Z,5.87
2022-10-11T11:33:00.613Z,7.05
2022-10-11T11:38:06.769Z,7.25
2022-10-11T11:43:16.773Z,7.20
2022-10-11T11:48:22.057Z,6.90
2022-10-11T11:58:43.701Z,6.85
2022-10-11T12:03:52.604Z,7.30
2022-10-11T12:15:04.862Z,7.55
2022-10-11T12:20:16.212Z,7.30
2022-10-11T12:25:32.258Z,7.05
2022-10-11T12:31:03.118Z,6.37
2022-10-11T12:36:30.949Z,7.55
2022-10-11T12:41:51.193Z,7.15
2022-10-11T12:47:20.181Z,7.07
2022-10-11T12:52:31.793Z,6.85
2022-10-11T12:58:16.120Z,6.53
2022-10-11T13:03:32.295Z,7.22
2022-10-11T13:08:39.875Z,7.30
2022-10-11T13:13:44.892Z,6.62
2022-10-11T13:18:49.569Z,8.80
2022-10-11T13:23:55.365Z,7.45
2022-10-11T13:28:58.007Z,6.70
2022-10-11T13:34:04.425Z,6.95
2022-10-11T13:39:28.555Z,6.47
2022-10-11T13:44:33.850Z,7.03
2022-10-11T13:49:37.205Z,6.50
2022-10-11T13:54:56.819Z,7.10
2022-10-11T13:59:58.700Z,6.37
2022-10-11T14:05:22.342Z,6.30
2022-10-11T14:10:25.726Z,6.80
2022-10-11T14:15:29.129Z,6.57
2022-10-11T14:20:37.769Z,6.87
2022-10-11T14:25:44.438Z,6.30
2022-10-11T14:30:46.148Z,6.40
2022-10-11T14:35:47.884Z,6.70
2022-10-11T14:40:50.987Z,6.43
2022-10-11T14:45:53.205Z,6.75
2022-10-11T14:50:58.637Z,8.63
2022-10-11T14:56:01.743Z,6.80
2022-10-11T15:01:03.536Z,6.65
2022-10-11T15:06:05.992Z,7.18
2022-10-11T15:11:10.363Z,6.90
2022-10-11T15:16:13.563Z,6.55
2022-10-11T15:21:18.132Z,6.75
2022-10-11T15:26:24.979Z,6.53
2022-10-11T15:31:26.784Z,6.50
2022-10-11T15:36:28.824Z,6.45
2022-10-11T15:41:32.104Z,6.85
2022-10-11T15:46:33.850Z,6.47
2022-10-11T15:51:35.555Z,7.05
2022-10-11T15:56:38.651Z,7.07
2022-10-11T16:01:46.223Z,7.07
2022-10-11T16:06:47.961Z,6.72
2022-10-11T16:11:51.032Z,6.45
2022-10-11T16:16:52.823Z,6.47
2022-10-11T16:21:54.594Z,6.68
2022-10-11T16:26:57.680Z,6.80
2022-10-11T16:31:59.413Z,6.78
2022-10-11T16:37:06.682Z,6.93
2022-10-11T16:42:09.825Z,7.47
2022-10-11T16:47:11.666Z,6.55
2022-10-11T16:52:17.024Z,7.20
2022-10-11T16:57:20.183Z,7.28
2022-10-11T17:02:23.680Z,6.82
2022-10-11T17:07:25.439Z,6.80
2022-10-11T17:12:28.987Z,7.32
2022-10-11T17:28:04.001Z,6.97
2022-10-11T17:33:05.773Z,6.87
2022-10-11T17:38:07.534Z,7.18
2022-10-11T17:43:10.651Z,6.20
2022-10-11T17:48:12.324Z,6.75
2022-10-11T17:53:14.036Z,6.90
2022-10-11T17:58:18.214Z,7.47
2022-10-11T18:03:19.961Z,6.78
2022-10-11T18:08:21.730Z,7.80
2022-10-11T18:13:24.803Z,7.20
2022-10-11T18:18:26.597Z,6.95
2022-10-11T18:23:28.301Z,6.95
2022-10-11T18:28:31.418Z,6.80
2022-10-11T18:33:33.155Z,6.57
2022-10-11T18:38:35.261Z,7.12
2022-10-11T18:43:38.380Z,7.20
2022-10-11T18:48:40.229Z,7.32
2022-10-11T18:53:42.490Z,9.00
2022-10-11T18:58:45.584Z,7.00
2022-10-11T19:03:49.726Z,7.47
2022-10-11T19:08:59.720Z,6.75
2022-10-11T19:14:06.525Z,7.22
2022-10-11T19:19:10.218Z,7.80
2022-10-11T19:24:11.911Z,7.62
2022-10-11T19:29:16.360Z,7.45
2022-10-11T19:34:18.928Z,7.93
2022-10-11T19:39:22.131Z,8.60
2022-10-11T19:44:25.652Z,7.95
2022-10-11T19:49:27.496Z,7.62
2022-10-11T19:54:29.413Z,8.85
2022-10-11T19:59:32.561Z,8.25
2022-10-11T20:04:52.823Z,7.22
2022-10-11T20:09:55.136Z,7.62
2022-10-11T20:14:58.182Z,7.95
2022-10-11T20:19:59.841Z,7.70
2022-10-11T20:25:01.585Z,8.00
2022-10-11T20:30:05.623Z,8.95
2022-10-11T20:35:07.875Z,8.57
2022-10-11T20:40:11.513Z,9.18
2022-10-11T20:45:14.656Z,8.90
2022-10-11T20:50:20.780Z,9.43
2022-10-11T20:55:24.609Z,8.48
2022-10-11T21:00:27.755Z,9.10
2022-10-11T21:05:29.460Z,7.60
2022-10-11T21:10:31.527Z,8.75
2022-10-11T21:36:42.090Z,8.90
2022-10-11T21:41:43.815Z,8.75
2022-10-11T21:47:06.020Z,8.70
2022-10-11T21:52:09.513Z,8.20
2022-10-11T21:57:11.197Z,8.63
2022-10-11T22:02:12.902Z,8.43
2022-10-11T22:07:16.003Z,9.30
2022-10-11T22:12:17.681Z,8.32
2022-10-11T22:17:19.402Z,9.45
2022-10-11T22:22:22.552Z,9.23
2022-10-11T22:27:24.270Z,9.07
2022-10-11T22:32:26.032Z,9.27
2022-10-11T22:37:29.095Z,9.25
2022-10-11T22:42:31.225Z,8.82
2022-10-11T22:47:33.024Z,8.95
2022-10-11T22:52:36.251Z,9.13
2022-10-11T22:57:38.345Z,9.13
2022-10-11T23:02:40.474Z,9.05
2022-10-11T23:07:43.515Z,8.77
2022-10-11T23:12:45.408Z,8.98
2022-10-11T23:17:48.153Z,9.10
2022-10-11T23:22:51.220Z,9.02
2022-10-11T23:27:52.917Z,9.18
2022-10-11T23:32:54.596Z,9.60
2022-10-11T23:37:57.656Z,9.05
2022-10-11T23:42:59.598Z,9.88
2022-10-11T23:48:01.308Z,10.70
2022-10-11T23:53:04.391Z,9.48
2022-10-11T23:58:06.212Z,9.07
